createdAt,value
2019-01-26T00:00:10.334Z,50.91
2019-01-26T00:01:10.341Z,51.01
2019-01-26T00:02:10.317Z,50.78
2019-01-26T00:03:10.310Z,49.09
2019-01-26T00:04:10.352Z,49.28
2019-01-26T00:05:10.284Z,51.31
2019-01-26T00:06:10.278Z,51.85
2019-01-26T00:07:10.265Z,52.81
2019-01-26T00:08:10.255Z,51.64
2019-01-26T00:09:10.247Z,52.70
2019-01-26T00:10:10.302Z,54.52
2019-01-26T00:11:10.225Z,53.34
2019-01-26T00:12:10.213Z,52.81
2019-01-26T00:13:10.205Z,50.99
2019-01-26T00:14:10.230Z,49.71
2019-01-26T00:15:10.183Z,49.41
2019-01-26T00:16:10.212Z,50.24
2019-01-26T00:17:10.170Z,51.85
2019-01-26T00:18:10.156Z,52.83
2019-01-26T00:19:10.147Z,52.83
2019-01-26T00:20:10.170Z,53.47
2019-01-26T00:21:10.122Z,53.66
2019-01-26T00:22:10.112Z,54.52
2019-01-26T00:23:10.104Z,56.66
2019-01-26T00:24:10.095Z,57.30
2019-01-26T00:25:10.097Z,58.15
2019-01-26T00:26:10.106Z,58.45
2019-01-26T00:27:10.064Z,55.57
2019-01-26T00:28:10.059Z,52.25
2019-01-26T00:29:10.040Z,50.86
2019-01-26T00:30:10.065Z,50.43
2019-01-26T00:31:10.040Z,50.52
2019-01-26T00:32:10.017Z,52.12
2019-01-26T00:33:10.518Z,53.83
2019-01-26T00:34:09.992Z,53.41
2019-01-26T00:35:09.987Z,52.76
2019-01-26T00:36:10.020Z,54.47
2019-01-26T00:37:09.973Z,54.98
2019-01-26T00:38:09.957Z,54.55
2019-01-26T00:39:09.939Z,54.02
2019-01-26T00:40:09.970Z,51.89
2019-01-26T00:41:09.918Z,52.42
2019-01-26T00:42:09.906Z,52.72
2019-01-26T00:43:09.944Z,53.78
2019-01-26T00:44:09.889Z,55.60
2019-01-26T00:45:09.888Z,57.54
2019-01-26T00:46:09.911Z,58.29
2019-01-26T00:47:09.857Z,57.73
2019-01-26T00:48:09.847Z,59.55
2019-01-26T00:49:09.835Z,57.73
2019-01-26T00:50:09.849Z,54.96
2019-01-26T00:51:09.823Z,57.41
2019-01-26T00:52:09.844Z,55.83
2019-01-26T00:53:09.794Z,56.98
2019-01-26T00:54:09.783Z,59.76
2019-01-26T00:55:09.777Z,59.76
2019-01-26T00:56:09.784Z,58.26
2019-01-26T00:57:09.763Z,56.98
2019-01-26T00:58:09.798Z,55.38
2019-01-26T00:59:09.803Z,53.89
2019-01-26T01:00:09.732Z,51.97
2019-01-26T01:01:09.714Z,51.54
2019-01-26T01:02:09.700Z,51.65
2019-01-26T01:03:09.711Z,50.79
2019-01-26T01:04:09.719Z,50.92
2019-01-26T01:05:09.679Z,50.60
2019-01-26T01:06:09.663Z,51.22
2019-01-26T01:07:09.657Z,51.12
2019-01-26T01:08:09.645Z,51.56
2019-01-26T01:09:09.656Z,53.14
2019-01-26T01:10:09.661Z,53.46
2019-01-26T01:11:09.649Z,55.60
2019-01-26T01:12:09.609Z,55.70
2019-01-26T01:13:09.597Z,55.38
2019-01-26T01:14:09.582Z,57.41
2019-01-26T01:15:09.596Z,59.65
2019-01-26T01:16:09.559Z,58.58
2019-01-26T01:17:09.587Z,57.31
2019-01-26T01:18:09.539Z,58.37
2019-01-26T01:19:09.532Z,59.94
2019-01-26T01:20:09.529Z,56.45
2019-01-26T01:21:09.512Z,54.85
2019-01-26T01:22:09.543Z,54.77
2019-01-26T01:23:09.498Z,55.08
2019-01-26T01:24:09.509Z,52.72
2019-01-26T01:25:09.467Z,53.44
2019-01-26T01:26:10.003Z,55.68
2019-01-26T01:27:09.459Z,55.06
2019-01-26T01:28:09.436Z,55.27
2019-01-26T01:29:09.432Z,57.52
2019-01-26T01:30:09.421Z,59.33
2019-01-26T01:31:09.403Z,59.41
2019-01-26T01:32:09.444Z,57.68
2019-01-26T01:33:09.388Z,58.21
2019-01-26T01:34:09.375Z,57.46
2019-01-26T01:35:09.369Z,57.79
2019-01-26T01:36:09.352Z,59.81
2019-01-26T01:37:09.383Z,59.92
2019-01-26T01:38:09.343Z,56.93
2019-01-26T01:39:09.325Z,56.85
2019-01-26T01:40:09.314Z,54.72
2019-01-26T01:41:09.316Z,54.19
2019-01-26T01:42:09.292Z,53.78
2019-01-26T01:43:09.323Z,55.91
2019-01-26T01:44:09.272Z,58.37
2019-01-26T01:45:09.278Z,60.37
2019-01-26T01:46:09.250Z,62.00
2019-01-26T01:47:09.244Z,64.14
2019-01-26T01:48:09.229Z,66.45
2019-01-26T01:49:09.260Z,68.27
2019-01-26T01:50:09.213Z,66.35
2019-01-26T01:51:09.218Z,65.49
2019-01-26T01:52:09.188Z,66.02
2019-01-26T01:53:09.191Z,66.45
2019-01-26T01:54:09.203Z,66.77
2019-01-26T01:55:09.159Z,66.77
2019-01-26T01:56:09.183Z,66.02
2019-01-26T01:57:09.158Z,66.16
2019-01-26T01:58:09.137Z,67.20
2019-01-26T01:59:09.155Z,67.73
2019-01-26T02:00:09.108Z,68.59
2019-01-26T02:01:09.096Z,69.33
2019-01-26T02:02:09.087Z,70.40
2019-01-26T02:03:09.094Z,71.47
2019-01-26T02:04:09.071Z,71.61
2019-01-26T02:05:09.089Z,72.14
2019-01-26T02:06:09.048Z,72.56
2019-01-26T02:07:09.040Z,72.14
2019-01-26T02:08:09.029Z,73.21
2019-01-26T02:09:09.034Z,73.28
2019-01-26T02:10:09.043Z,73.63
2019-01-26T02:11:09.000Z,73.74
2019-01-26T02:12:08.983Z,75.02
2019-01-26T02:13:08.972Z,74.70
2019-01-26T02:14:08.968Z,75.13
2019-01-26T02:15:08.966Z,75.66
2019-01-26T02:16:08.980Z,75.87
2019-01-26T02:17:08.938Z,76.40
2019-01-26T02:18:08.923Z,77.47
2019-01-26T02:19:08.913Z,77.69
2019-01-26T02:20:08.940Z,78.01
2019-01-26T02:21:08.912Z,78.72
2019-01-26T02:22:08.882Z,79.79
2019-01-26T02:23:08.873Z,81.17
2019-01-26T02:24:08.860Z,80.53
2019-01-26T02:25:08.900Z,80.32
2019-01-26T02:26:08.843Z,80.43
2019-01-26T02:27:08.874Z,81.60
2019-01-26T02:28:08.856Z,82.13
2019-01-26T02:29:08.811Z,82.24
2019-01-26T02:30:08.801Z,82.45
2019-01-26T02:31:08.789Z,82.56
2019-01-26T02:32:08.781Z,83.48
2019-01-26T02:33:08.815Z,83.59
2019-01-26T02:34:08.756Z,83.06
2019-01-26T02:35:08.751Z,82.42
2019-01-26T02:36:08.773Z,82.09
2019-01-26T02:37:08.731Z,83.52
2019-01-26T02:38:08.749Z,83.20
2019-01-26T02:39:08.707Z,83.20
2019-01-26T02:40:08.705Z,83.13
2019-01-26T02:41:08.690Z,83.02
2019-01-26T02:42:08.714Z,83.20
2019-01-26T02:43:08.703Z,83.31
2019-01-26T02:44:08.656Z,82.98
2019-01-26T02:45:08.643Z,83.62
2019-01-26T02:46:08.653Z,84.16
2019-01-26T02:47:08.624Z,83.98
2019-01-26T02:48:08.614Z,84.37
2019-01-26T02:49:08.638Z,84.16
2019-01-26T02:50:08.593Z,84.27
2019-01-26T02:51:08.581Z,84.91
2019-01-26T02:52:08.572Z,84.37
2019-01-26T02:53:08.583Z,84.69
2019-01-26T02:54:08.548Z,85.65
2019-01-26T02:55:08.589Z,85.65
2019-01-26T02:56:08.533Z,85.86
2019-01-26T02:57:08.519Z,86.08
2019-01-26T02:58:08.516Z,85.65
2019-01-26T02:59:08.519Z,86.01
2019-01-26T03:00:08.492Z,85.58
2019-01-26T03:01:08.515Z,84.94
2019-01-26T03:02:08.476Z,84.84
2019-01-26T03:03:08.508Z,84.94
2019-01-26T03:04:08.449Z,85.16
2019-01-26T03:05:08.454Z,85.80
2019-01-26T03:06:08.426Z,85.27
2019-01-26T03:07:08.417Z,85.80
2019-01-26T03:08:08.408Z,86.11
2019-01-26T03:09:08.439Z,86.11
2019-01-26T03:10:08.387Z,86.01
2019-01-26T03:11:08.396Z,86.40
2019-01-26T03:12:08.369Z,85.90
2019-01-26T03:13:08.352Z,86.44
2019-01-26T03:14:08.358Z,86.01
2019-01-26T03:15:08.372Z,85.86
2019-01-26T03:16:08.325Z,85.86
2019-01-26T03:17:08.309Z,85.65
2019-01-26T03:18:08.326Z,85.97
2019-01-26T03:19:08.294Z,85.86
2019-01-26T03:20:08.288Z,86.04
2019-01-26T03:21:08.308Z,85.86
2019-01-26T03:22:08.267Z,86.29
2019-01-26T03:23:08.250Z,86.08
2019-01-26T03:24:08.255Z,87.15
2019-01-26T03:25:08.231Z,86.29
2019-01-26T03:26:08.262Z,86.57
2019-01-26T03:27:08.217Z,87.10
2019-01-26T03:28:08.202Z,86.25
2019-01-26T03:29:08.192Z,86.51
2019-01-26T03:30:08.193Z,86.29
2019-01-26T03:31:08.168Z,86.72
2019-01-26T03:32:08.197Z,86.08
2019-01-26T03:33:08.209Z,87.00
2019-01-26T03:34:08.146Z,87.00
2019-01-26T03:35:08.133Z,86.57
2019-01-26T03:36:08.132Z,87.10
2019-01-26T03:37:08.113Z,87.60
2019-01-26T03:38:08.103Z,87.56
2019-01-26T03:39:08.130Z,88.02
2019-01-26T03:40:08.075Z,86.68
2019-01-26T03:41:08.076Z,86.54
2019-01-26T03:42:08.059Z,87.92
2019-01-26T03:43:08.072Z,88.77
2019-01-26T03:44:08.034Z,89.37
2019-01-26T03:45:08.061Z,89.05
2019-01-26T03:46:08.013Z,88.31
2019-01-26T03:47:13.656Z,87.46
2019-01-26T03:48:08.997Z,87.77
2019-01-26T03:49:08.040Z,87.35
2019-01-26T03:50:07.980Z,87.88
2019-01-26T03:51:07.963Z,88.52
2019-01-26T03:52:07.951Z,88.37
2019-01-26T03:53:07.945Z,88.90
2019-01-26T03:54:07.932Z,88.55
2019-01-26T03:55:07.980Z,89.29
2019-01-26T03:56:07.921Z,88.34
2019-01-26T03:57:07.911Z,88.65
2019-01-26T03:58:07.891Z,88.44
2019-01-26T03:59:07.885Z,88.40
2019-01-26T04:00:07.873Z,87.55
2019-01-26T04:01:07.914Z,87.55
2019-01-26T04:02:07.852Z,87.87
2019-01-26T04:03:07.843Z,87.45
2019-01-26T04:04:07.831Z,88.08
2019-01-26T04:05:07.829Z,87.93
2019-01-26T04:06:07.807Z,87.02
2019-01-26T04:07:07.846Z,86.49
2019-01-26T04:08:07.792Z,86.49
2019-01-26T04:09:07.782Z,86.21
2019-01-26T04:10:07.768Z,86.31
2019-01-26T04:11:07.758Z,86.95
2019-01-26T04:12:07.792Z,87.48
2019-01-26T04:13:07.750Z,88.19
2019-01-26T04:14:07.727Z,87.45
2019-01-26T04:15:07.713Z,87.55
2019-01-26T04:16:07.706Z,87.55
2019-01-26T04:17:07.711Z,87.55
2019-01-26T04:18:07.724Z,86.91
2019-01-26T04:19:07.735Z,86.91
2019-01-26T04:20:07.673Z,87.66
2019-01-26T04:21:07.655Z,87.98
2019-01-26T04:22:07.643Z,87.40
2019-01-26T04:23:07.637Z,87.87
2019-01-26T04:24:07.623Z,87.76
2019-01-26T04:25:07.651Z,87.62
2019-01-26T04:26:07.623Z,87.55
2019-01-26T04:27:07.598Z,87.51
2019-01-26T04:28:07.585Z,87.62
2019-01-26T04:29:07.577Z,87.83
2019-01-26T04:30:07.563Z,87.83
2019-01-26T04:31:07.596Z,88.04
2019-01-26T04:32:07.563Z,87.73
2019-01-26T04:33:07.532Z,87.73
2019-01-26T04:34:07.523Z,86.83
2019-01-26T04:35:07.516Z,86.30
2019-01-26T04:36:07.508Z,86.30
2019-01-26T04:37:07.528Z,85.88
2019-01-26T04:38:07.499Z,86.30
2019-01-26T04:39:07.479Z,86.09
2019-01-26T04:40:07.465Z,86.24
2019-01-26T04:41:07.456Z,86.13
2019-01-26T04:42:07.451Z,86.24
2019-01-26T04:43:07.465Z,86.91
2019-01-26T04:44:07.443Z,86.59
2019-01-26T04:45:07.414Z,86.77
2019-01-26T04:46:07.401Z,86.91
2019-01-26T04:47:07.392Z,86.24
2019-01-26T04:48:07.381Z,86.44
2019-01-26T04:49:07.412Z,86.27
2019-01-26T04:50:07.371Z,86.27
2019-01-26T04:51:07.352Z,86.24
2019-01-26T04:52:07.344Z,86.59
2019-01-26T04:53:07.331Z,86.80
2019-01-26T04:54:07.361Z,86.91
2019-01-26T04:55:07.313Z,87.02
2019-01-26T04:56:07.319Z,86.87
2019-01-26T04:57:07.289Z,86.98
2019-01-26T04:58:07.285Z,86.98
2019-01-26T04:59:07.269Z,86.87
2019-01-26T05:00:07.293Z,87.34
2019-01-26T05:01:07.251Z,87.19
2019-01-26T05:02:07.255Z,87.19
2019-01-26T05:03:07.272Z,86.98
2019-01-26T05:04:07.218Z,87.19
2019-01-26T05:05:07.209Z,87.08
2019-01-26T05:06:07.205Z,86.98
2019-01-26T05:07:07.186Z,86.44
2019-01-26T05:08:07.197Z,86.77
2019-01-26T05:09:07.208Z,86.72
2019-01-26T05:10:07.155Z,86.98
2019-01-26T05:11:07.147Z,86.83
2019-01-26T05:12:07.149Z,86.83
2019-01-26T05:13:07.136Z,86.83
2019-01-26T05:14:07.161Z,87.58
2019-01-26T05:15:07.139Z,87.37
2019-01-26T05:16:07.096Z,87.22
2019-01-26T05:17:07.093Z,87.43
2019-01-26T05:18:07.081Z,87.26
2019-01-26T05:19:07.079Z,87.32
2019-01-26T05:20:07.105Z,87.54
2019-01-26T05:21:07.051Z,87.01
2019-01-26T05:22:07.050Z,87.01
2019-01-26T05:23:07.025Z,86.58
2019-01-26T05:24:07.026Z,86.16
2019-01-26T05:25:07.049Z,86.16
2019-01-26T05:26:07.008Z,86.16
2019-01-26T05:27:07.008Z,86.79
2019-01-26T05:28:06.978Z,86.58
2019-01-26T05:29:06.985Z,86.26
2019-01-26T05:30:06.958Z,86.79
2019-01-26T05:31:06.984Z,86.79
2019-01-26T05:32:06.947Z,86.44
2019-01-26T05:33:06.944Z,86.54
2019-01-26T05:34:06.919Z,86.65
2019-01-26T05:35:06.912Z,87.01
2019-01-26T05:36:06.900Z,86.79
2019-01-26T05:37:06.958Z,86.05
2019-01-26T05:38:06.885Z,87.01
2019-01-26T05:39:06.895Z,85.94
2019-01-26T05:40:06.994Z,86.26
2019-01-26T05:41:06.848Z,86.05
2019-01-26T05:42:06.834Z,86.16
2019-01-26T05:43:07.045Z,86.90
2019-01-26T05:44:06.822Z,86.58
2019-01-26T05:45:06.807Z,86.90
2019-01-26T05:46:06.794Z,86.69
2019-01-26T05:47:06.779Z,86.69
2019-01-26T05:48:06.786Z,86.58
2019-01-26T05:49:06.807Z,86.26
2019-01-26T05:50:06.751Z,86.05
2019-01-26T05:51:06.760Z,86.26
2019-01-26T05:52:06.731Z,86.69
2019-01-26T05:53:06.725Z,87.54
2019-01-26T05:54:06.709Z,87.32
2019-01-26T05:55:06.736Z,87.43
2019-01-26T05:56:06.704Z,88.07
2019-01-26T05:57:06.679Z,87.65
2019-01-26T05:58:06.702Z,87.54
2019-01-26T05:59:06.660Z,87.65
2019-01-26T06:00:06.647Z,88.07
2019-01-26T06:01:06.645Z,87.22
2019-01-26T06:02:06.653Z,87.26
2019-01-26T06:03:06.668Z,87.75
2019-01-26T06:04:06.613Z,87.32
2019-01-26T06:05:06.596Z,87.32
2019-01-26T06:06:06.586Z,87.32
2019-01-26T06:07:06.575Z,87.43
2019-01-26T06:08:06.599Z,88.07
2019-01-26T06:09:06.596Z,88.21
2019-01-26T06:10:06.549Z,87.85
2019-01-26T06:11:06.536Z,87.90
2019-01-26T06:12:06.528Z,88.11
2019-01-26T06:13:06.515Z,88.11
2019-01-26T06:14:06.525Z,87.79
2019-01-26T06:15:06.529Z,87.68
2019-01-26T06:16:06.490Z,87.47
2019-01-26T06:17:06.475Z,88.11
2019-01-26T06:18:06.468Z,88.21
2019-01-26T06:19:06.489Z,88.00
2019-01-26T06:20:06.470Z,87.47
2019-01-26T06:21:06.433Z,88.11
2019-01-26T06:22:06.420Z,88.00
2019-01-26T06:23:06.413Z,88.00
2019-01-26T06:24:06.437Z,88.00
2019-01-26T06:25:06.400Z,87.58
2019-01-26T06:26:06.390Z,88.07
2019-01-26T06:27:06.370Z,87.47
2019-01-26T06:28:06.357Z,87.79
2019-01-26T06:29:06.352Z,87.68
2019-01-26T06:30:06.376Z,87.58
2019-01-26T06:31:06.330Z,87.37
2019-01-26T06:32:06.333Z,87.47
2019-01-26T06:33:06.310Z,87.47
2019-01-26T06:34:06.307Z,88.11
2019-01-26T06:35:06.288Z,87.58
2019-01-26T06:36:06.311Z,87.37
2019-01-26T06:37:06.307Z,87.37
2019-01-26T06:38:06.274Z,87.37
2019-01-26T06:39:06.246Z,87.43
2019-01-26T06:40:06.234Z,87.68
2019-01-26T06:41:06.225Z,87.90
2019-01-26T06:42:06.228Z,87.65
2019-01-26T06:43:06.248Z,88.07
2019-01-26T06:44:06.205Z,88.07
2019-01-26T06:45:06.191Z,86.76
2019-01-26T06:46:06.178Z,86.76
2019-01-26T06:47:06.161Z,86.79
2019-01-26T06:48:06.154Z,87.22
2019-01-26T06:49:06.186Z,87.22
2019-01-26T06:50:06.135Z,87.22
2019-01-26T06:51:06.124Z,87.43
2019-01-26T06:52:06.112Z,87.32
2019-01-26T06:53:06.102Z,87.54
2019-01-26T06:54:06.091Z,87.39
2019-01-26T06:55:06.129Z,87.29
2019-01-26T06:56:06.073Z,86.86
2019-01-26T06:57:06.071Z,86.69
2019-01-26T06:58:06.049Z,87.01
2019-01-26T06:59:06.039Z,86.97
2019-01-26T07:00:06.033Z,86.76
2019-01-26T07:01:06.066Z,86.47
2019-01-26T07:02:06.012Z,87.07
2019-01-26T07:03:05.997Z,86.76
2019-01-26T07:04:05.988Z,86.90
2019-01-26T07:05:06.016Z,87.65
2019-01-26T07:06:05.967Z,88.07
2019-01-26T07:07:06.012Z,87.65
2019-01-26T07:08:05.950Z,87.50
2019-01-26T07:09:05.934Z,87.71
2019-01-26T07:10:05.929Z,87.71
2019-01-26T07:11:05.961Z,87.29
2019-01-26T07:12:05.901Z,87.39
2019-01-26T07:13:05.907Z,87.57
2019-01-26T07:14:05.885Z,87.25
2019-01-26T07:15:05.875Z,86.82
2019-01-26T07:16:05.869Z,85.66
2019-01-26T07:17:05.899Z,85.69
2019-01-26T07:18:09.624Z,85.44
2019-01-26T07:19:05.845Z,85.69
2019-01-26T07:20:05.821Z,85.31
2019-01-26T07:21:05.809Z,85.77
2019-01-26T07:22:05.801Z,86.62
2019-01-26T07:23:05.824Z,86.94
2019-01-26T07:24:05.780Z,86.83
2019-01-26T07:25:05.788Z,87.26
2019-01-26T07:26:05.767Z,86.94
2019-01-26T07:27:05.751Z,86.94
2019-01-26T07:28:05.736Z,86.72
2019-01-26T07:29:05.762Z,87.05
2019-01-26T07:30:05.715Z,86.94
2019-01-26T07:31:06.696Z,86.72
2019-01-26T07:32:05.696Z,86.72
2019-01-26T07:33:05.686Z,86.94
2019-01-26T07:34:05.712Z,87.22
2019-01-26T07:35:05.665Z,87.43
2019-01-26T07:36:05.656Z,87.01
2019-01-26T07:37:05.652Z,86.86
2019-01-26T07:38:05.633Z,86.12
2019-01-26T07:39:05.620Z,85.66
2019-01-26T07:40:05.653Z,85.44
2019-01-26T07:41:05.605Z,85.44
2019-01-26T07:42:05.592Z,85.59
2019-01-26T07:43:05.597Z,86.04
2019-01-26T07:44:05.569Z,86.15
2019-01-26T07:45:05.558Z,86.04
2019-01-26T07:46:05.594Z,85.19
2019-01-26T07:47:05.543Z,84.84
2019-01-26T07:48:05.531Z,84.23
2019-01-26T07:49:05.531Z,84.56
2019-01-26T07:50:05.512Z,84.52
2019-01-26T07:51:05.500Z,85.26
2019-01-26T07:52:05.525Z,85.26
2019-01-26T07:53:05.473Z,85.33
2019-01-26T07:54:05.467Z,85.61
2019-01-26T07:55:05.453Z,85.08
2019-01-26T07:56:05.459Z,84.86
2019-01-26T07:57:05.430Z,85.36
2019-01-26T07:58:05.467Z,82.43
2019-01-26T07:59:05.414Z,81.73
2019-01-26T08:00:05.402Z,82.08
2019-01-26T08:01:05.390Z,82.97
2019-01-26T08:02:05.396Z,82.54
2019-01-26T08:03:05.402Z,83.28
2019-01-26T08:04:05.397Z,84.03
2019-01-26T08:05:05.352Z,84.13
2019-01-26T08:06:05.338Z,83.25
2019-01-26T08:07:05.331Z,83.88
2019-01-26T08:08:05.321Z,83.63
2019-01-26T08:09:05.334Z,84.01
2019-01-26T08:10:05.334Z,83.28
2019-01-26T08:11:05.340Z,83.66
2019-01-26T08:12:05.275Z,82.81
2019-01-26T08:13:05.264Z,82.46
2019-01-26T08:14:05.300Z,83.03
2019-01-26T08:15:05.271Z,82.07
2019-01-26T08:16:05.241Z,80.31
2019-01-26T08:17:05.798Z,81.48
2019-01-26T08:18:05.212Z,81.76
2019-01-26T08:19:05.208Z,81.12
2019-01-26T08:20:05.229Z,80.24
2019-01-26T08:21:05.208Z,80.45
2019-01-26T08:22:05.178Z,79.96
2019-01-26T08:23:05.208Z,80.77
2019-01-26T08:24:05.159Z,80.41
2019-01-26T08:25:05.186Z,80.69
2019-01-26T08:26:05.131Z,80.02
2019-01-26T08:27:05.133Z,79.17
2019-01-26T08:28:05.114Z,79.14
2019-01-26T08:29:05.140Z,78.61
2019-01-26T08:30:05.125Z,78.37
2019-01-26T08:31:05.078Z,78.33
2019-01-26T08:32:05.063Z,76.75
2019-01-26T08:33:05.067Z,75.62
2019-01-26T08:34:05.057Z,74.95
2019-01-26T08:35:05.071Z,75.97
2019-01-26T08:36:05.044Z,76.92
2019-01-26T08:37:05.048Z,75.65
2019-01-26T08:38:05.009Z,76.64
2019-01-26T08:39:05.049Z,77.06
2019-01-26T08:40:05.026Z,77.06
2019-01-26T08:41:04.973Z,77.03
2019-01-26T08:42:05.354Z,77.28
2019-01-26T08:43:04.953Z,77.14
2019-01-26T08:44:04.972Z,77.52
2019-01-26T08:45:04.980Z,75.51
2019-01-26T08:46:04.992Z,75.62
2019-01-26T08:47:04.916Z,75.73
2019-01-26T08:48:04.900Z,76.15
2019-01-26T08:49:04.889Z,75.48
2019-01-26T08:50:04.938Z,77.06
2019-01-26T08:51:04.941Z,75.16
2019-01-26T08:52:04.892Z,75.13
2019-01-26T08:53:04.876Z,74.32
2019-01-26T08:54:04.837Z,75.06
2019-01-26T08:55:04.825Z,75.16
2019-01-26T08:56:05.779Z,74.85
2019-01-26T08:57:04.811Z,75.66
2019-01-26T08:58:04.892Z,74.04
2019-01-26T08:59:05.805Z,73.76
2019-01-26T09:00:04.839Z,74.18
2019-01-26T09:01:04.781Z,73.94
2019-01-26T09:02:04.756Z,73.94
2019-01-26T09:03:04.763Z,73.83
2019-01-26T09:04:04.775Z,73.83
2019-01-26T09:05:04.756Z,73.55
2019-01-26T09:06:05.270Z,75.02
2019-01-26T09:07:04.704Z,74.39
2019-01-26T09:08:05.281Z,73.62
2019-01-26T09:09:04.700Z,73.41
2019-01-26T09:10:04.828Z,73.94
2019-01-26T09:11:04.663Z,74.07
2019-01-26T09:12:04.680Z,73.52
2019-01-26T09:13:04.641Z,73.80
2019-01-26T09:14:04.631Z,73.58
2019-01-26T09:15:04.636Z,73.80
2019-01-26T09:16:04.755Z,73.90
2019-01-26T09:17:05.288Z,73.58
2019-01-26T09:18:04.671Z,73.80
2019-01-26T09:19:04.577Z,72.39
2019-01-26T09:20:04.570Z,72.57
2019-01-26T09:21:04.585Z,72.22
2019-01-26T09:22:04.587Z,71.63
2019-01-26T09:23:05.273Z,70.44
2019-01-26T09:24:04.525Z,68.94
2019-01-26T09:25:04.526Z,67.89
2019-01-26T09:26:04.504Z,68.13
2019-01-26T09:27:04.497Z,69.10
2019-01-26T09:28:04.529Z,69.10
2019-01-26T09:29:04.471Z,68.55
2019-01-26T09:30:04.527Z,69.03
2019-01-26T09:31:04.459Z,69.81
2019-01-26T09:32:04.438Z,69.01
2019-01-26T09:33:04.429Z,68.04
2019-01-26T09:34:04.455Z,67.93
2019-01-26T09:35:04.407Z,67.65
2019-01-26T09:36:04.506Z,69.26
2019-01-26T09:37:04.386Z,68.49
2019-01-26T09:38:04.375Z,69.04
2019-01-26T09:39:04.394Z,70.20
2019-01-26T09:40:04.435Z,69.96
2019-01-26T09:41:04.344Z,69.96
2019-01-26T09:42:04.348Z,68.82
2019-01-26T09:43:04.323Z,65.84
2019-01-26T09:44:04.311Z,66.06
2019-01-26T09:45:04.318Z,65.65
2019-01-26T09:46:04.331Z,63.32
2019-01-26T09:47:04.290Z,63.45
2019-01-26T09:48:04.291Z,63.79
2019-01-26T09:49:04.268Z,64.22
2019-01-26T09:50:04.252Z,63.92
2019-01-26T09:51:04.256Z,60.67
2019-01-26T09:52:04.272Z,58.84
2019-01-26T09:53:04.220Z,57.87
2019-01-26T09:54:04.210Z,58.53
2019-01-26T09:55:04.199Z,57.98
2019-01-26T09:56:04.189Z,55.58
2019-01-26T09:57:04.201Z,54.36
2019-01-26T09:58:04.207Z,56.62
2019-01-26T09:59:04.155Z,56.15
2019-01-26T10:00:04.149Z,54.10
2019-01-26T10:01:04.137Z,52.93
2019-01-26T10:02:04.136Z,53.14
2019-01-26T10:03:04.156Z,53.79
2019-01-26T10:04:04.103Z,53.95
2019-01-26T10:05:04.107Z,53.17
2019-01-26T10:06:04.084Z,51.17
2019-01-26T10:07:04.072Z,52.23
2019-01-26T10:08:04.065Z,50.99
2019-01-26T10:09:04.092Z,50.65
2019-01-26T10:10:04.042Z,50.37
2019-01-26T10:11:04.029Z,52.56
2019-01-26T10:12:04.014Z,55.14
2019-01-26T10:13:04.002Z,53.86
2019-01-26T10:14:03.995Z,54.33
2019-01-26T10:15:04.020Z,53.53
2019-01-26T10:16:03.989Z,52.54
2019-01-26T10:17:03.969Z,51.22
2019-01-26T10:18:03.952Z,49.72
2019-01-26T10:19:03.942Z,49.41
2019-01-26T10:20:03.945Z,50.22
2019-01-26T10:21:03.960Z,50.31
2019-01-26T10:22:03.916Z,50.70
2019-01-26T10:23:03.900Z,48.69
2019-01-26T10:24:04.073Z,47.36
2019-01-26T10:25:03.967Z,45.61
2019-01-26T10:26:03.869Z,44.32
2019-01-26T10:27:03.860Z,45.38
2019-01-26T10:28:03.851Z,46.25
2019-01-26T10:29:04.785Z,46.70
2019-01-26T10:30:03.877Z,45.61
2019-01-26T10:31:03.812Z,46.06
2019-01-26T10:32:03.826Z,49.03
2019-01-26T10:33:03.806Z,49.49
2019-01-26T10:34:03.832Z,49.60
2019-01-26T10:35:03.831Z,49.82
2019-01-26T10:36:03.816Z,49.65
2019-01-26T10:37:03.770Z,47.25
2019-01-26T10:38:03.748Z,46.12
2019-01-26T10:39:03.736Z,46.25
2019-01-26T10:40:03.724Z,46.40
2019-01-26T10:41:03.768Z,47.95
2019-01-26T10:42:03.717Z,45.92
2019-01-26T10:43:03.684Z,45.61
2019-01-26T10:44:03.676Z,45.59
2019-01-26T10:45:03.696Z,46.30
2019-01-26T10:46:03.695Z,48.02
2019-01-26T10:47:03.649Z,48.43
2019-01-26T10:48:03.629Z,49.16
2019-01-26T10:49:03.632Z,46.27
2019-01-26T10:50:03.623Z,45.69
2019-01-26T10:51:03.606Z,45.59
2019-01-26T10:52:03.637Z,44.35
2019-01-26T10:53:03.580Z,45.96
2019-01-26T10:54:03.596Z,43.77
2019-01-26T10:55:03.624Z,45.73
2019-01-26T10:56:03.588Z,46.31
2019-01-26T10:57:03.578Z,47.87
2019-01-26T10:58:03.531Z,47.71
2019-01-26T10:59:03.551Z,48.74
2019-01-26T11:00:03.506Z,49.37
2019-01-26T11:01:03.528Z,48.68
2019-01-26T11:02:03.550Z,47.20
2019-01-26T11:03:03.862Z,47.81
2019-01-26T11:04:03.528Z,49.98
2019-01-26T11:05:03.462Z,53.14
2019-01-26T11:06:03.579Z,52.34
2019-01-26T11:07:03.491Z,50.40
2019-01-26T11:08:03.459Z,49.60
2019-01-26T11:09:03.504Z,50.76
2019-01-26T11:10:03.410Z,52.91
2019-01-26T11:11:03.394Z,53.77
2019-01-26T11:12:03.374Z,52.11
2019-01-26T11:13:03.381Z,50.40
2019-01-26T11:14:03.363Z,49.80
2019-01-26T11:15:03.390Z,49.86
2019-01-26T11:16:03.341Z,49.24
2019-01-26T11:17:03.377Z,49.90
2019-01-26T11:18:03.311Z,52.54
2019-01-26T11:19:07.825Z,54.00
2019-01-26T11:20:03.290Z,54.21
2019-01-26T11:21:03.459Z,54.44
2019-01-26T11:22:03.269Z,55.22
2019-01-26T11:23:03.260Z,55.19
2019-01-26T11:24:03.290Z,54.23
2019-01-26T11:25:03.244Z,54.36
2019-01-26T11:26:03.222Z,55.22
2019-01-26T11:27:03.231Z,54.25
2019-01-26T11:28:04.247Z,54.57
2019-01-26T11:29:03.344Z,54.88
2019-01-26T11:30:03.185Z,54.96
2019-01-26T11:31:03.186Z,53.80
2019-01-26T11:32:03.296Z,50.25
2019-01-26T11:33:03.202Z,48.03
2019-01-26T11:34:03.197Z,48.25
2019-01-26T11:35:03.143Z,50.12
2019-01-26T11:36:03.119Z,48.05
2019-01-26T11:37:03.114Z,48.04
2019-01-26T11:38:03.141Z,49.85
2019-01-26T11:39:03.096Z,52.64
2019-01-26T11:40:03.193Z,55.22
2019-01-26T11:41:03.104Z,56.21
2019-01-26T11:42:03.122Z,56.86
2019-01-26T11:43:03.118Z,57.38
2019-01-26T11:44:03.061Z,59.08
2019-01-26T11:45:03.081Z,58.69
2019-01-26T11:46:03.090Z,58.69
2019-01-26T11:47:03.047Z,58.55
2019-01-26T11:48:03.002Z,58.37
2019-01-26T11:49:03.025Z,59.63
2019-01-26T11:50:02.994Z,59.10
2019-01-26T11:51:02.967Z,59.63
2019-01-26T11:52:02.989Z,60.59
2019-01-26T11:53:02.972Z,60.67
2019-01-26T11:54:03.741Z,60.15
2019-01-26T11:55:02.922Z,60.04
2019-01-26T11:56:02.903Z,60.21
2019-01-26T11:57:02.890Z,60.62
2019-01-26T11:58:02.915Z,59.39
2019-01-26T11:59:02.871Z,58.26
2019-01-26T12:00:02.897Z,58.55
2019-01-26T12:01:02.854Z,57.87
2019-01-26T12:02:02.849Z,58.61
2019-01-26T12:03:03.606Z,58.42
2019-01-26T12:04:02.820Z,58.34
2019-01-26T12:05:02.836Z,58.73
2019-01-26T12:06:02.839Z,58.71
2019-01-26T12:07:02.916Z,59.67
2019-01-26T12:08:02.773Z,60.12
2019-01-26T12:09:02.774Z,60.22
2019-01-26T12:10:02.804Z,60.15
2019-01-26T12:11:02.747Z,60.07
2019-01-26T12:12:02.771Z,60.83
2019-01-26T12:13:02.848Z,62.40
2019-01-26T12:14:02.739Z,62.53
2019-01-26T12:15:02.706Z,62.63
2019-01-26T12:16:02.713Z,63.06
2019-01-26T12:17:02.686Z,63.06
2019-01-26T12:18:02.752Z,63.68
2019-01-26T12:19:02.657Z,63.50
2019-01-26T12:20:02.672Z,62.92
2019-01-26T12:21:02.645Z,63.55
2019-01-26T12:22:02.627Z,62.87
2019-01-26T12:23:02.613Z,62.95
2019-01-26T12:24:02.700Z,62.82
2019-01-26T12:25:02.618Z,62.92
2019-01-26T12:26:02.605Z,62.82
2019-01-26T12:27:02.577Z,62.60
2019-01-26T12:28:02.596Z,63.13
2019-01-26T12:29:02.551Z,63.13
2019-01-26T12:30:02.596Z,63.13
2019-01-26T12:31:02.546Z,63.20
2019-01-26T12:32:02.519Z,62.19
2019-01-26T12:33:02.508Z,62.19
2019-01-26T12:34:02.499Z,63.13
2019-01-26T12:35:02.485Z,63.31
2019-01-26T12:36:02.528Z,62.60
2019-01-26T12:37:02.466Z,63.76
2019-01-26T12:38:02.455Z,64.70
2019-01-26T12:39:02.455Z,63.13
2019-01-26T12:40:02.432Z,63.23
2019-01-26T12:41:02.465Z,62.68
2019-01-26T12:42:02.432Z,62.92
2019-01-26T12:43:02.406Z,62.68
2019-01-26T12:44:02.393Z,63.18
2019-01-26T12:45:03.878Z,62.13
2019-01-26T12:46:02.371Z,62.37
2019-01-26T12:47:02.406Z,63.02
2019-01-26T12:48:02.353Z,62.65
2019-01-26T12:49:02.355Z,61.92
2019-01-26T12:50:02.410Z,61.61
2019-01-26T12:51:02.325Z,63.70
2019-01-26T12:52:02.308Z,63.62